KCIN

Arthur N Neu Airport

Carroll, Iowa, USA
METAR KCIN 202015Z AUTO 01017KT 8SM BKN007 BKN014 19/19 A2979 RMK AO2
Observed Flight Rules
Aug-20 @ 20:15 UTC (16 minutes ago) Instrument Flight Rules
Wind Visibility Clouds
10° at 17 knots 8 miles
  • Broken at 700' AGL
  • Broken at 1,400' AGL
Temperatures Readings
Current 19°C / 66°F
Dewpoint 19°C / 66°F
Humidity 100%
Altimeter 29.79" Hg
Pressure 1009 hPa
Elevation 375
METAR KCIN 202015Z AUTO 01017KT 8SM BKN007 BKN014 19/19 A2979 RMK AO2
Observed Flight Rules
Aug-20 @ 20:15 UTC
(16 minutes ago)
IFR
Wind Visibility
10° at 17 knots 8 miles
Clouds
  • Broken at 700' AGL
  • Broken at 1,400' AGL
Temperature Dewpoint
19°C / 66°F 19°C / 66°F
Humidity Altimeter Pressure
100% 29.79" Hg 1009 hPa